Time;durP1;ratioP1;P1;durP2;ratioP2;P2;SDS_P1;SDS_P2;PMS_P1;PMS_P2;Temp;Humidity;BMP_temperature;BMP_pressure;BME280_temperature;BME280_humidity;BME280_pressure;Samples;Min_cycle;Max_cycle;Signal;HPM_P1;HPM_P2
2022/01/02 00:01:51;;;;;;;0.10;0.10;;;;;;;14.51;65.96;101812.34;5034168;28;20073;-82
2022/01/02 00:04:20;;;;;;;0.10;0.10;;;;;;;14.51;66.45;101803.47;5033690;28;20033;-82
2022/01/02 00:06:50;;;;;;;0.10;0.10;;;;;;;14.49;66.62;101799.97;5034147;28;20022;-82
2022/01/02 00:09:29;;;;;;;0.10;0.10;;;;;;;14.41;67.15;101781.47;5034889;28;20029;-82
2022/01/02 00:12:17;;;;;;;0.10;0.10;;;;;;;14.39;67.15;101767.28;5034444;28;20021;-82
2022/01/02 00:14:46;;;;;;;0.10;0.10;;;;;;;14.32;67.09;101760.34;5033908;28;20113;-82
2022/01/02 00:17:16;;;;;;;0.10;0.10;;;;;;;14.32;67.50;101749.69;5034422;28;20504;-83
2022/01/02 00:19:51;;;;;;;0.28;0.28;;;;;;;14.22;68.08;101752.53;5034217;28;20072;-82
2022/01/02 00:22:19;;;;;;;0.10;0.10;;;;;;;14.24;67.79;101741.81;5034579;28;20384;-83
2022/01/02 00:24:46;;;;;;;0.90;0.80;;;;;;;14.27;67.83;101739.09;5034162;28;20037;-83
2022/01/02 00:27:15;;;;;;;0.10;0.10;;;;;;;14.19;68.85;101733.94;5033740;28;20117;-83
2022/01/02 00:29:42;;;;;;;0.10;0.10;;;;;;;14.17;68.46;101727.75;5034164;28;20033;-82
2022/01/02 00:32:10;;;;;;;0.10;0.10;;;;;;;14.26;68.41;101744.47;5038432;28;20036;-83
2022/01/02 00:34:38;;;;;;;0.40;0.40;;;;;;;14.17;68.34;101774.88;5037911;28;20061;-84
2022/01/02 00:37:06;;;;;;;0.25;0.25;;;;;;;14.19;68.57;101765.94;5036635;28;20009;-83
2022/01/02 00:39:33;;;;;;;0.10;0.10;;;;;;;14.16;68.90;101765.97;5036816;28;20057;-82
2022/01/02 00:42:09;;;;;;;0.20;0.20;;;;;;;14.20;69.30;101757.00;5037733;28;20029;-83
2022/01/02 00:45:04;;;;;;;0.20;0.20;;;;;;;14.27;69.10;101746.19;5037422;28;20083;-82
2022/01/02 00:50:20;;;;;;;0.10;0.10;;;;;;;14.26;69.25;101728.47;5077134;28;20934;-83
2022/01/02 00:52:48;;;;;;;0.25;0.25;;;;;;;14.22;69.31;101733.88;5071533;28;20467;-82
2022/01/02 00:55:19;;;;;;;0.10;0.10;;;;;;;14.21;69.34;101732.09;5072196;28;20078;-83
2022/01/02 00:58:06;;;;;;;0.20;0.20;;;;;;;14.31;69.05;101721.25;5072070;28;20020;-82
2022/01/02 01:00:33;;;;;;;1.10;1.10;;;;;;;14.23;69.27;101716.06;5072226;28;20150;-82
2022/01/02 01:03:07;;;;;;;2.80;0.50;;;;;;;14.31;69.14;101711.47;5071678;28;20464;-83
2022/01/02 01:05:36;;;;;;;0.20;0.20;;;;;;;14.24;69.31;101716.06;5071757;28;20025;-82
2022/01/02 01:08:05;;;;;;;0.10;0.10;;;;;;;14.26;69.54;101710.69;5071762;28;20029;-83
2022/01/02 01:10:35;;;;;;;0.60;0.57;;;;;;;14.15;69.93;101700.25;5071617;28;20025;-83
2022/01/02 01:13:05;;;;;;;0.10;0.10;;;;;;;14.23;69.98;101698.31;5071491;28;20467;-82
2022/01/02 01:15:35;;;;;;;0.47;0.47;;;;;;;14.29;69.62;101707.94;5071241;28;20032;-83
2022/01/02 01:18:03;;;;;;;0.10;0.10;;;;;;;14.28;69.30;101698.22;5070873;28;20036;-83
2022/01/02 01:20:37;;;;;;;0.10;0.10;;;;;;;14.22;69.67;101674.34;5071160;28;20395;-83
2022/01/02 01:23:04;;;;;;;0.10;0.10;;;;;;;14.27;69.33;101660.91;5070387;28;20029;-83
2022/01/02 01:25:30;;;;;;;1.45;1.27;;;;;;;14.33;69.32;101645.66;5070975;28;20071;-83
2022/01/02 01:27:56;;;;;;;0.10;0.10;;;;;;;14.32;69.28;101643.03;5070822;28;20021;-83
2022/01/02 01:30:26;;;;;;;0.10;0.10;;;;;;;14.38;68.96;101643.78;5071042;28;20029;-83
2022/01/02 01:32:53;;;;;;;0.20;0.20;;;;;;;14.32;69.10;101627.91;5070703;28;20476;-83
2022/01/02 01:35:21;;;;;;;2.72;1.85;;;;;;;14.27;69.63;101629.81;5071321;28;20491;-82
2022/01/02 01:37:47;;;;;;;0.30;0.30;;;;;;;14.37;69.29;101636.69;5071041;28;20040;-83
2022/01/02 01:40:14;;;;;;;0.10;0.10;;;;;;;14.28;69.55;101631.56;5071275;28;20033;-82
2022/01/02 01:42:55;;;;;;;0.43;0.43;;;;;;;14.32;69.35;101624.38;5071462;28;20033;-83
2022/01/02 01:48:04;;;;;;;0.63;0.63;;;;;;;14.38;69.28;101621.53;5072155;28;20382;-83
2022/01/02 01:50:37;;;;;;;0.10;0.10;;;;;;;14.42;69.05;101611.69;5072056;28;20037;-83
2022/01/02 01:53:05;;;;;;;0.10;0.10;;;;;;;14.42;69.06;101601.91;5071864;28;20033;-81
2022/01/02 01:55:34;;;;;;;0.10;0.10;;;;;;;14.48;68.96;101595.53;5071515;28;20033;-83
2022/01/02 01:58:02;;;;;;;0.20;0.20;;;;;;;14.44;68.95;101610.75;5071932;28;20063;-83
2022/01/02 02:00:30;;;;;;;0.10;0.10;;;;;;;14.50;68.90;101602.59;5072060;28;20033;-83
2022/01/02 02:02:56;;;;;;;0.10;0.10;;;;;;;14.56;68.68;101594.44;5072219;28;20442;-83
2022/01/02 02:05:23;;;;;;;0.32;0.32;;;;;;;14.55;68.70;101595.38;5071203;28;20028;-83
2022/01/02 02:07:49;;;;;;;0.57;0.57;;;;;;;14.56;68.85;101609.59;5069695;28;20373;-83
2022/01/02 02:10:31;;;;;;;0.10;0.10;;;;;;;14.60;68.63;101597.06;5071041;28;20438;-83
2022/01/02 02:12:58;;;;;;;1.95;0.90;;;;;;;14.70;68.50;101590.59;5071573;28;20123;-82
2022/01/02 02:15:25;;;;;;;0.10;0.10;;;;;;;14.66;68.39;101588.94;5071714;28;20025;-83
2022/01/02 02:17:53;;;;;;;0.10;0.10;;;;;;;14.71;68.52;101582.53;5072102;28;20033;-82
2022/01/02 02:20:23;;;;;;;0.10;0.10;;;;;;;14.81;68.22;101585.88;5071053;28;20108;-83
2022/01/02 02:22:53;;;;;;;0.40;0.40;;;;;;;14.80;68.20;101573.44;5071153;28;20056;-83
2022/01/02 02:25:25;;;;;;;0.10;0.10;;;;;;;14.81;67.97;101580.53;5071357;28;20029;-83
2022/01/02 02:27:54;;;;;;;0.10;0.10;;;;;;;14.85;67.86;101579.56;5070984;28;20067;-82
2022/01/02 02:30:21;;;;;;;0.10;0.10;;;;;;;14.95;67.59;101573.97;5071459;28;20056;-82
2022/01/02 02:32:47;;;;;;;0.40;0.40;;;;;;;14.98;67.50;101571.22;5071471;28;20028;-83
2022/01/02 02:35:14;;;;;;;0.30;0.30;;;;;;;14.98;67.55;101560.56;5071135;28;20021;-82
2022/01/02 02:37:43;;;;;;;0.35;0.35;;;;;;;14.90;67.76;101557.19;5069804;28;20032;-82
2022/01/02 02:40:11;;;;;;;0.10;0.10;;;;;;;14.90;67.80;101565.19;5070971;28;20031;-83
2022/01/02 02:42:47;;;;;;;0.10;0.10;;;;;;;15.04;67.37;101557.69;5070931;28;20152;-83
2022/01/02 02:51:21;;;;;;;0.10;0.10;;;;;;;15.24;66.65;101529.56;5070683;28;20037;-82
2022/01/02 02:53:48;;;;;;;0.75;0.75;;;;;;;15.17;66.83;101526.22;5070658;28;20040;-82
2022/01/02 02:56:23;;;;;;;0.82;0.82;;;;;;;15.11;66.69;101511.22;5071138;28;20036;-81
2022/01/02 02:58:52;;;;;;;0.20;0.20;;;;;;;15.17;66.56;101515.53;5060595;28;20048;-82
2022/01/02 03:01:20;;;;;;;0.30;0.30;;;;;;;15.24;66.41;101517.13;5057481;28;20029;-82
2022/01/02 03:03:47;;;;;;;0.10;0.10;;;;;;;15.25;66.02;101545.53;5057207;28;20029;-83
2022/01/02 03:06:15;;;;;;;0.10;0.10;;;;;;;15.32;66.03;101551.59;5056313;28;20037;-82
2022/01/02 03:08:42;;;;;;;0.10;0.10;;;;;;;15.18;66.23;101558.19;5057097;28;20404;-82
2022/01/02 03:11:13;;;;;;;9.00;4.38;;;;;;;15.19;66.08;101554.59;5057261;28;20036;-83
2022/01/02 03:13:40;;;;;;;0.85;0.68;;;;;;;15.37;65.73;101555.88;5057198;28;20488;-83
2022/01/02 03:16:06;;;;;;;9.73;2.85;;;;;;;15.33;65.84;101545.34;5056491;28;20041;-82
2022/01/02 03:18:33;;;;;;;0.10;0.10;;;;;;;15.46;65.86;101538.69;5057225;28;20025;-82
2022/01/02 03:20:59;;;;;;;0.10;0.10;;;;;;;15.44;65.64;101535.22;5057641;28;20033;-83
2022/01/02 03:23:25;;;;;;;24.85;1.75;;;;;;;15.42;65.75;101513.03;5056978;28;20432;-82
2022/01/02 03:25:52;;;;;;;0.10;0.10;;;;;;;15.41;65.84;101521.94;5057483;28;20526;-82
2022/01/02 03:28:18;;;;;;;9.45;2.15;;;;;;;15.28;65.77;101528.59;5056536;28;20025;-83
2022/01/02 03:30:44;;;;;;;1.85;0.43;;;;;;;15.30;66.01;101506.25;5057074;28;20033;-83
2022/01/02 03:33:10;;;;;;;25.08;1.88;;;;;;;15.44;65.70;101515.63;5056959;28;20040;-81
2022/01/02 03:35:37;;;;;;;0.20;0.20;;;;;;;15.33;65.51;101510.63;5056176;28;20025;-82
2022/01/02 03:38:05;;;;;;;0.73;0.73;;;;;;;15.43;65.37;101504.09;5056402;28;20082;-82
2022/01/02 03:40:31;;;;;;;0.10;0.10;;;;;;;15.41;65.17;101500.59;5056301;28;20039;-83
2022/01/02 03:42:57;;;;;;;0.10;0.10;;;;;;;15.44;65.33;101483.59;5056530;28;20065;-83
2022/01/02 03:45:24;;;;;;;0.08;0.08;;;;;;;15.45;65.22;101483.56;5057188;28;20021;-83
2022/01/02 03:47:50;;;;;;;0.10;0.10;;;;;;;15.41;65.02;101487.22;5056414;28;20037;-81
2022/01/02 03:50:16;;;;;;;0.10;0.10;;;;;;;15.37;65.19;101502.47;5056338;28;20082;-83
2022/01/02 03:52:43;;;;;;;0.22;0.22;;;;;;;15.39;65.17;101488.19;5055845;28;20025;-82
2022/01/02 03:55:10;;;;;;;0.10;0.10;;;;;;;15.56;64.44;101479.69;5056199;28;20100;-82
2022/01/02 03:57:37;;;;;;;0.08;0.08;;;;;;;15.48;64.69;101472.78;5056484;28;20480;-83
2022/01/02 04:00:07;;;;;;;0.10;0.10;;;;;;;15.54;64.92;101469.06;5056844;28;20029;-82
2022/01/02 04:02:37;;;;;;;0.10;0.10;;;;;;;15.37;65.22;101472.22;5056236;28;20037;-83
2022/01/02 04:05:06;;;;;;;2.38;1.75;;;;;;;15.35;65.66;101466.06;5054688;28;20027;-83
2022/01/02 04:07:32;;;;;;;0.55;0.55;;;;;;;15.25;65.93;101454.78;5055607;28;20033;-83
2022/01/02 04:10:02;;;;;;;0.08;0.08;;;;;;;15.24;65.92;101452.16;5054586;28;20458;-83
2022/01/02 04:12:29;;;;;;;0.50;0.50;;;;;;;15.28;65.68;101449.34;5056297;28;20035;-82
2022/01/02 04:14:55;;;;;;;0.10;0.10;;;;;;;15.21;65.98;101453.13;5055942;28;20036;-83
2022/01/02 04:17:23;;;;;;;2.47;2.10;;;;;;;15.27;65.76;101452.06;5055921;28;20029;-83
2022/01/02 04:19:51;;;;;;;0.43;0.43;;;;;;;15.18;66.01;101459.44;5055724;28;20443;-82
2022/01/02 04:22:18;;;;;;;0.10;0.10;;;;;;;15.16;66.32;101447.03;5055198;28;20036;-83
2022/01/02 04:24:44;;;;;;;0.80;0.80;;;;;;;15.23;65.94;101443.28;5056002;28;20035;-84
2022/01/02 04:27:10;;;;;;;0.15;0.15;;;;;;;15.19;66.55;101445.16;5055698;28;20427;-83
2022/01/02 04:29:37;;;;;;;0.10;0.10;;;;;;;15.20;66.61;101454.94;5056096;28;20040;-83
2022/01/02 04:32:03;;;;;;;0.05;0.05;;;;;;;15.11;67.07;101447.19;5055570;28;20025;-84
2022/01/02 04:34:29;;;;;;;0.10;0.10;;;;;;;15.01;67.58;101429.69;5055216;28;20086;-84
2022/01/02 04:36:55;;;;;;;3.40;1.10;;;;;;;14.98;67.50;101440.47;5055417;28;20412;-84
2022/01/02 04:39:21;;;;;;;0.47;0.47;;;;;;;15.04;67.53;101429.59;5055288;28;20025;-83
2022/01/02 04:41:48;;;;;;;0.52;0.45;;;;;;;14.94;67.76;101406.78;5055538;28;20040;-84
2022/01/02 04:44:14;;;;;;;0.10;0.10;;;;;;;14.96;67.86;101405.81;5054997;28;20029;-83
2022/01/02 04:46:40;;;;;;;0.10;0.10;;;;;;;14.85;68.60;101387.47;5055056;28;20037;-84
2022/01/02 04:49:06;;;;;;;0.10;0.10;;;;;;;14.93;68.00;101403.25;5055438;28;20380;-83
2022/01/02 04:51:32;;;;;;;0.20;0.20;;;;;;;14.94;68.06;101396.09;5054920;28;20029;-84
2022/01/02 04:53:58;;;;;;;2.65;1.40;;;;;;;14.93;68.19;101391.69;5054916;28;20052;-84
2022/01/02 04:56:24;;;;;;;0.10;0.10;;;;;;;14.84;68.49;101391.03;5054367;28;20396;-84
2022/01/02 04:58:51;;;;;;;0.10;0.10;;;;;;;14.91;68.54;101380.19;5054601;28;20531;-83
2022/01/02 05:01:17;;;;;;;0.15;0.15;;;;;;;14.76;68.88;101377.03;5055391;28;20366;-84
2022/01/02 05:03:44;;;;;;;0.10;0.10;;;;;;;14.87;68.38;101360.72;5055560;28;20017;-84
2022/01/02 05:06:11;;;;;;;0.20;0.20;;;;;;;14.82;68.65;101360.84;5055148;28;20056;-81
2022/01/02 05:08:37;;;;;;;0.10;0.10;;;;;;;14.87;68.47;101348.25;5054552;28;20041;-84
2022/01/02 05:11:04;;;;;;;0.05;0.05;;;;;;;14.85;68.33;101352.78;5054782;28;20021;-84
2022/01/02 05:13:30;;;;;;;0.10;0.10;;;;;;;14.90;68.12;101341.09;5054826;28;20049;-83
2022/01/02 05:15:56;;;;;;;0.05;0.05;;;;;;;14.81;68.24;101337.75;5055188;28;20350;-84
2022/01/02 05:18:22;;;;;;;0.08;0.08;;;;;;;14.85;67.94;101338.53;5054445;28;20163;-84
2022/01/02 05:20:48;;;;;;;0.10;0.10;;;;;;;14.85;67.88;101331.44;5053980;28;20040;-84
2022/01/02 05:23:16;;;;;;;0.10;0.10;;;;;;;14.93;67.56;101319.63;5054456;28;20036;-85
2022/01/02 05:25:43;;;;;;;0.15;0.15;;;;;;;14.86;67.55;101313.63;5054715;28;20057;-84
2022/01/02 05:28:10;;;;;;;1.25;0.68;;;;;;;14.91;67.62;101308.16;5054733;28;20071;-83
2022/01/02 05:30:38;;;;;;;0.10;0.10;;;;;;;14.90;67.34;101309.06;5054884;28;20076;-84
2022/01/02 05:33:04;;;;;;;0.10;0.10;;;;;;;15.03;66.77;101311.31;5053055;28;20028;-83
2022/01/02 05:35:31;;;;;;;0.10;0.10;;;;;;;15.05;66.87;101297.91;5055078;28;20092;-83
2022/01/02 05:37:58;;;;;;;0.55;0.40;;;;;;;14.98;66.75;101291.91;5055316;28;20044;-84
2022/01/02 05:40:31;;;;;;;3.03;1.65;;;;;;;14.98;66.54;101294.56;5054812;28;20108;-84
2022/01/02 05:42:59;;;;;;;0.10;0.10;;;;;;;15.06;66.36;101278.31;5054650;28;20113;-84
2022/01/02 05:45:25;;;;;;;0.43;0.43;;;;;;;15.06;66.17;101272.97;5054410;28;20025;-84
2022/01/02 05:47:51;;;;;;;0.10;0.10;;;;;;;15.05;66.10;101260.56;5054113;28;20099;-84
2022/01/02 05:50:18;;;;;;;0.10;0.10;;;;;;;14.96;66.38;101260.84;5054741;28;20102;-84
2022/01/02 05:52:44;;;;;;;0.03;0.03;;;;;;;14.98;66.25;101269.69;5054538;28;20029;-83
2022/01/02 05:55:10;;;;;;;0.20;0.20;;;;;;;14.84;66.19;101252.31;5055101;28;20037;-82
2022/01/02 05:57:36;;;;;;;0.10;0.10;;;;;;;14.82;66.43;101250.63;5054618;28;20040;-84
2022/01/02 06:00:05;;;;;;;0.25;0.25;;;;;;;14.90;66.02;101245.03;5054310;28;20025;-84
2022/01/02 06:02:31;;;;;;;0.55;0.40;;;;;;;14.82;66.39;101232.81;5054384;28;20037;-84
2022/01/02 06:04:58;;;;;;;0.10;0.10;;;;;;;14.75;66.18;101228.59;5054419;28;20026;-84
2022/01/02 06:07:24;;;;;;;0.43;0.43;;;;;;;14.66;66.28;101221.75;5054193;28;20037;-84
2022/01/02 06:09:50;;;;;;;0.10;0.10;;;;;;;14.71;66.32;101218.94;5054058;28;20384;-83
2022/01/02 06:12:17;;;;;;;0.40;0.40;;;;;;;14.63;66.33;101212.94;5054101;28;20040;-84
2022/01/02 06:14:43;;;;;;;0.20;0.20;;;;;;;14.67;66.13;101217.31;5054097;28;20107;-84
2022/01/02 06:17:09;;;;;;;0.20;0.20;;;;;;;14.60;66.34;101205.03;5053940;28;20575;-83
2022/01/02 06:19:35;;;;;;;0.38;0.38;;;;;;;14.59;66.28;101188.16;5054014;28;20123;-83
2022/01/02 06:22:01;;;;;;;0.50;0.50;;;;;;;14.59;66.38;101189.97;5054113;28;20033;-83
2022/01/02 06:24:27;;;;;;;0.10;0.10;;;;;;;14.57;66.22;101185.53;5053951;28;20025;-83
2022/01/02 06:26:54;;;;;;;5.10;1.35;;;;;;;14.61;66.08;101161.47;5054158;28;20086;-84
2022/01/02 06:29:21;;;;;;;0.10;0.10;;;;;;;14.62;66.19;101172.06;5053841;28;20033;-83
2022/01/02 06:31:47;;;;;;;0.17;0.17;;;;;;;14.62;66.28;101168.53;5054446;28;20083;-83
2022/01/02 06:34:13;;;;;;;0.10;0.10;;;;;;;14.53;66.47;101173.22;5056275;28;20104;-83
2022/01/02 06:36:39;;;;;;;0.05;0.05;;;;;;;14.62;66.12;101165.88;5057911;28;20102;-83
2022/01/02 06:39:05;;;;;;;0.47;0.47;;;;;;;14.56;66.34;101151.78;5057536;28;20511;-83
2022/01/02 06:41:31;;;;;;;0.20;0.20;;;;;;;14.56;66.18;101151.78;5057794;28;20403;-83
2022/01/02 06:43:57;;;;;;;0.20;0.20;;;;;;;14.54;66.27;101142.09;5057858;28;20052;-84
2022/01/02 06:46:23;;;;;;;0.13;0.13;;;;;;;14.47;66.14;101145.91;5057711;28;20434;-83
2022/01/02 06:48:50;;;;;;;0.10;0.10;;;;;;;14.52;66.05;101128.81;5056905;28;20025;-83
2022/01/02 06:51:16;;;;;;;0.90;0.90;;;;;;;14.57;65.92;101118.88;5057548;28;20029;-83
2022/01/02 06:53:43;;;;;;;0.15;0.15;;;;;;;14.54;66.00;101121.66;5057102;28;20384;-83
2022/01/02 06:56:09;;;;;;;0.90;0.90;;;;;;;14.36;66.36;101123.09;5057475;28;20435;-83
2022/01/02 06:58:38;;;;;;;0.10;0.10;;;;;;;14.45;66.20;101119.25;5057153;28;20033;-83
2022/01/02 07:01:05;;;;;;;0.25;0.25;;;;;;;14.44;66.14;101106.84;5057480;28;20083;-83
2022/01/02 07:03:33;;;;;;;0.10;0.10;;;;;;;14.49;66.02;101114.72;5057492;28;20029;-82
2022/01/02 07:06:00;;;;;;;0.40;0.40;;;;;;;14.47;66.23;101109.44;5057407;28;20071;-83
2022/01/02 07:08:28;;;;;;;0.20;0.20;;;;;;;14.43;66.14;101115.81;5058020;28;20096;-83
2022/01/02 07:10:56;;;;;;;0.10;0.10;;;;;;;14.45;66.28;101108.59;5057599;28;20029;-83
2022/01/02 07:13:22;;;;;;;0.10;0.10;;;;;;;14.40;66.25;101114.09;5056536;28;20040;-83
2022/01/02 07:15:49;;;;;;;0.10;0.10;;;;;;;14.51;65.91;101126.22;5058279;28;20515;-83
2022/01/02 07:18:15;;;;;;;0.17;0.17;;;;;;;14.52;66.14;101133.28;5057240;28;20032;-82
2022/01/02 07:20:41;;;;;;;0.10;0.10;;;;;;;14.39;67.01;101132.78;5057073;28;20033;-83
2022/01/02 07:23:07;;;;;;;0.10;0.10;;;;;;;14.51;67.12;101140.41;5056918;28;20022;-84
2022/01/02 07:25:33;;;;;;;0.10;0.10;;;;;;;14.44;67.23;101148.66;5056607;28;20052;-84
2022/01/02 07:27:59;;;;;;;0.20;0.20;;;;;;;14.32;67.83;101125.94;5057523;28;20065;-85
2022/01/02 07:30:25;;;;;;;0.22;0.22;;;;;;;14.43;67.63;101139.78;5056650;28;20116;-84
2022/01/02 07:32:52;;;;;;;0.10;0.10;;;;;;;14.36;67.89;101149.75;5056337;28;20090;-84
2022/01/02 07:35:18;;;;;;;0.10;0.10;;;;;;;14.39;67.65;101162.09;5056412;28;20071;-84
2022/01/02 07:37:44;;;;;;;0.10;0.10;;;;;;;14.50;67.82;101159.97;5056052;28;20048;-84
2022/01/02 07:40:11;;;;;;;0.10;0.10;;;;;;;14.34;67.90;101150.72;5056172;28;20096;-84
2022/01/02 07:42:37;;;;;;;0.10;0.10;;;;;;;14.34;67.71;101156.06;5056706;28;20033;-85
2022/01/02 07:45:04;;;;;;;0.10;0.10;;;;;;;14.49;67.15;101147.59;5055953;28;20112;-84
2022/01/02 07:47:30;;;;;;;0.32;0.32;;;;;;;14.51;66.79;101158.22;5056047;28;20036;-83
2022/01/02 07:49:56;;;;;;;0.10;0.10;;;;;;;14.65;66.42;101187.13;5055968;28;20361;-83
2022/01/02 07:52:22;;;;;;;0.10;0.10;;;;;;;14.59;66.58;101139.28;5056116;28;20392;-83
2022/01/02 07:54:48;;;;;;;0.17;0.17;;;;;;;14.68;66.56;101147.91;5056218;28;20040;-83
2022/01/02 07:57:15;;;;;;;0.75;0.75;;;;;;;14.62;66.86;101137.41;5056348;28;20471;-83
2022/01/02 07:59:41;;;;;;;0.10;0.10;;;;;;;14.43;67.54;101155.78;5056421;28;20071;-84
2022/01/02 08:02:07;;;;;;;0.10;0.10;;;;;;;14.63;66.83;101154.25;5056492;28;20145;-83
2022/01/02 08:04:33;;;;;;;0.10;0.10;;;;;;;14.39;67.59;101159.44;5056042;28;20112;-84
2022/01/02 08:06:59;;;;;;;0.85;0.85;;;;;;;14.54;67.11;101158.97;5055887;28;20051;-84
2022/01/02 08:09:25;;;;;;;0.17;0.17;;;;;;;14.62;66.77;101160.53;5055815;28;20059;-83
2022/01/02 08:11:51;;;;;;;0.20;0.20;;;;;;;14.38;67.58;101142.59;5056559;28;20037;-85
2022/01/02 08:14:17;;;;;;;0.10;0.10;;;;;;;14.51;67.27;101153.72;5055739;28;20028;-84
2022/01/02 08:16:44;;;;;;;0.10;0.10;;;;;;;14.48;67.26;101145.84;5056149;28;20028;-84
2022/01/02 08:19:10;;;;;;;0.10;0.10;;;;;;;14.64;66.90;101138.22;5055986;28;20033;-84
2022/01/02 08:21:36;;;;;;;0.00;0.00;;;;;;;14.58;67.03;101138.44;5055151;28;20489;-83
2022/01/02 08:24:03;;;;;;;0.10;0.10;;;;;;;14.45;67.29;101159.25;5055827;28;20548;-84
2022/01/02 08:26:29;;;;;;;0.20;0.20;;;;;;;14.50;66.73;101135.13;5055513;28;20037;-83
2022/01/02 08:28:55;;;;;;;0.10;0.10;;;;;;;14.47;66.73;101137.91;5055583;28;20040;-83
2022/01/02 08:31:21;;;;;;;0.10;0.10;;;;;;;14.37;66.56;101129.31;5055544;28;20171;-83
2022/01/02 08:33:47;;;;;;;0.20;0.20;;;;;;;14.35;66.23;101145.34;5053899;28;20041;-84
2022/01/02 08:36:13;;;;;;;0.05;0.05;;;;;;;14.20;66.09;101144.00;5054614;28;20033;-84
2022/01/02 08:38:39;;;;;;;0.45;0.45;;;;;;;14.33;65.19;101143.63;5054309;28;20033;-85
2022/01/02 08:41:05;;;;;;;0.10;0.10;;;;;;;14.25;64.61;101151.88;5054875;28;20025;-83
2022/01/02 08:43:34;;;;;;;0.03;0.03;;;;;;;14.29;64.72;101155.31;5055601;28;20052;-84
2022/01/02 08:46:00;;;;;;;1.38;1.27;;;;;;;14.35;64.26;101144.47;5054759;28;20033;-85
2022/01/02 08:48:27;;;;;;;2.00;0.85;;;;;;;14.22;64.51;101142.19;5055681;28;20029;-83
2022/01/02 08:50:54;;;;;;;0.10;0.10;;;;;;;14.26;64.47;101136.78;5054435;28;20033;-83
2022/01/02 08:53:20;;;;;;;0.10;0.10;;;;;;;14.17;64.49;101127.28;5054786;28;20033;-83
2022/01/02 08:55:46;;;;;;;0.15;0.15;;;;;;;14.20;63.70;101125.34;5054033;28;20025;-83
2022/01/02 08:58:12;;;;;;;0.20;0.20;;;;;;;14.06;64.21;101125.78;5055187;28;20021;-83
2022/01/02 09:00:38;;;;;;;0.57;0.57;;;;;;;14.21;63.69;101126.25;5055441;28;20037;-83
2022/01/02 09:03:06;;;;;;;0.28;0.28;;;;;;;14.24;64.00;101127.03;5054760;28;20033;-83
2022/01/02 09:05:33;;;;;;;0.10;0.10;;;;;;;14.12;64.06;101134.50;5053752;28;20033;-83
2022/01/02 09:07:59;;;;;;;0.57;0.57;;;;;;;14.23;63.97;101132.38;5055260;28;20040;-83
2022/01/02 09:10:25;;;;;;;0.10;0.10;;;;;;;14.13;63.70;101129.16;5054796;28;20044;-83
2022/01/02 09:12:51;;;;;;;0.10;0.10;;;;;;;14.22;63.60;101126.19;5054493;28;20114;-83
2022/01/02 09:15:17;;;;;;;0.10;0.10;;;;;;;14.13;64.17;101122.94;5054688;28;20500;-83
2022/01/02 09:17:43;;;;;;;0.28;0.28;;;;;;;14.12;64.13;101129.19;5054634;28;20029;-83
2022/01/02 09:20:12;;;;;;;0.63;0.63;;;;;;;14.16;64.11;101137.03;5054733;28;20036;-83
2022/01/02 09:22:39;;;;;;;0.10;0.10;;;;;;;14.12;64.38;101148.72;5054910;28;20025;-83
2022/01/02 09:25:07;;;;;;;0.20;0.20;;;;;;;14.21;64.02;101153.75;5054702;28;20357;-83
2022/01/02 09:27:34;;;;;;;0.10;0.10;;;;;;;14.31;63.66;101142.84;5054576;28;20061;-83
2022/01/02 09:30:02;;;;;;;0.35;0.35;;;;;;;14.24;64.02;101140.34;5053949;28;20029;-83
2022/01/02 09:32:29;;;;;;;0.20;0.20;;;;;;;14.13;64.27;101147.81;5054541;28;20025;-83
2022/01/02 09:34:55;;;;;;;0.10;0.10;;;;;;;14.23;64.03;101159.94;5054431;28;20032;-83
2022/01/02 09:37:21;;;;;;;0.10;0.10;;;;;;;14.47;63.74;101152.09;5054123;28;20033;-83
2022/01/02 09:39:47;;;;;;;0.20;0.20;;;;;;;14.23;64.29;101154.59;5053313;28;20033;-83
2022/01/02 09:42:13;;;;;;;0.10;0.10;;;;;;;14.42;63.72;101150.47;5054209;28;20078;-83
2022/01/02 09:44:39;;;;;;;0.25;0.25;;;;;;;14.49;63.47;101158.25;5054220;28;20135;-83
2022/01/02 09:47:09;;;;;;;1.17;0.47;;;;;;;14.41;63.44;101146.94;5054415;28;20183;-82
2022/01/02 09:49:38;;;;;;;0.10;0.10;;;;;;;14.53;63.38;101151.03;5054439;28;20037;-82
2022/01/02 09:52:05;;;;;;;0.15;0.15;;;;;;;14.61;63.11;101142.78;5054801;28;20025;-83
2022/01/02 09:54:34;;;;;;;0.68;0.68;;;;;;;14.55;63.34;101144.75;5054220;28;20086;-83
2022/01/02 09:57:02;;;;;;;0.10;0.10;;;;;;;14.61;63.28;101150.78;5054133;28;20029;-83
2022/01/02 09:59:28;;;;;;;0.28;0.28;;;;;;;14.64;63.15;101142.69;5054261;28;20449;-82
2022/01/02 10:01:54;;;;;;;0.10;0.10;;;;;;;14.62;63.13;101139.22;5054154;28;20037;-83
2022/01/02 10:04:38;;;;;;;1.45;1.00;;;;;;;14.82;62.98;101151.94;5054923;28;20119;-83
2022/01/02 10:07:23;;;;;;;4.13;1.75;;;;;;;14.84;63.12;101142.94;5054298;28;20025;-82
2022/01/02 10:09:50;;;;;;;0.10;0.10;;;;;;;14.77;62.89;101143.22;5058021;28;20024;-83
2022/01/02 10:12:29;;;;;;;0.13;0.13;;;;;;;14.85;63.04;101158.03;5058327;28;20117;-82
2022/01/02 10:20:46;;;;;;;0.20;0.20;;;;;;;14.85;62.99;101139.38;5076131;27;20394;-82
2022/01/02 10:23:17;;;;;;;1.45;0.75;;;;;;;14.95;62.95;101136.38;5072210;28;20033;-82
2022/01/02 10:28:41;;;;;;;0.10;0.10;;;;;;;14.95;62.83;101128.38;5092013;28;20922;-83
2022/01/02 10:33:56;;;;;;;0.47;0.47;;;;;;;14.92;62.96;101147.16;5091989;27;20427;-82
2022/01/02 10:36:29;;;;;;;0.10;0.10;;;;;;;14.75;63.39;101150.38;5091959;28;20043;-82
2022/01/02 10:39:08;;;;;;;0.10;0.10;;;;;;;14.75;63.51;101139.72;5091503;28;20036;-82
2022/01/02 10:41:45;;;;;;;0.43;0.43;;;;;;;14.77;63.74;101170.75;5091677;28;20029;-82
2022/01/02 10:44:34;;;;;;;0.10;0.10;;;;;;;14.85;63.09;101151.81;5091829;28;20372;-82
2022/01/02 10:50:03;;;;;;;0.10;0.10;;;;;;;14.90;63.50;101143.66;5112139;27;20388;-82
2022/01/02 10:58:00;;;;;;;0.15;0.15;;;;;;;15.03;63.32;101147.66;5068198;27;20395;-82
2022/01/02 11:00:29;;;;;;;0.38;0.38;;;;;;;15.03;63.31;101150.34;5066395;28;20044;-81
2022/01/02 11:02:56;;;;;;;0.10;0.10;;;;;;;15.07;63.41;101159.97;5068516;28;20033;-82
2022/01/02 11:05:22;;;;;;;2.72;1.63;;;;;;;15.08;63.38;101150.16;5067775;28;20040;-83
2022/01/02 11:07:51;;;;;;;2.92;1.65;;;;;;;15.09;63.40;101157.25;5068028;28;20025;-82
2022/01/02 11:10:19;;;;;;;0.65;0.65;;;;;;;14.92;63.24;101152.50;5067624;28;20025;-82
2022/01/02 11:12:46;;;;;;;0.10;0.10;;;;;;;15.08;62.82;101160.84;5068293;28;20029;-82
2022/01/02 11:15:16;;;;;;;4.43;2.00;;;;;;;15.14;63.12;101168.63;5068148;28;20086;-82
2022/01/02 11:17:43;;;;;;;0.43;0.43;;;;;;;15.26;62.78;101164.69;5068463;28;20040;-83
2022/01/02 11:20:14;;;;;;;0.10;0.10;;;;;;;15.28;63.01;101160.19;5066932;28;20029;-82
2022/01/02 11:25:58;;;;;;;0.20;0.20;;;;;;;15.28;62.86;101155.69;5092066;27;20414;-82
2022/01/02 11:31:09;;;;;;;0.10;0.10;;;;;;;15.42;62.42;101159.69;5073200;27;20397;-81
2022/01/02 11:33:40;;;;;;;0.60;0.60;;;;;;;15.23;62.75;101178.13;5071981;28;20045;-81
2022/01/02 11:36:30;;;;;;;0.55;0.55;;;;;;;15.55;62.23;101168.13;5071245;28;20051;-82
2022/01/02 11:41:53;;;;;;;0.10;0.10;;;;;;;15.21;62.91;101186.19;5092123;27;20410;-82
2022/01/02 11:44:21;;;;;;;16.55;1.02;;;;;;;15.28;62.87;101189.53;5071759;28;20056;-82
2022/01/02 11:46:53;;;;;;;0.10;0.10;;;;;;;15.40;62.58;101162.38;5071618;28;20120;-82
2022/01/02 11:49:22;;;;;;;0.10;0.10;;;;;;;15.29;62.67;101177.91;5067180;28;20025;-82
2022/01/02 11:59:56;;;;;;;0.10;0.10;;;;;;;15.20;62.18;101163.09;5084154;27;20498;-83
2022/01/02 12:05:12;;;;;;;0.65;0.65;;;;;;;15.43;61.14;101170.31;5112211;27;20875;-82
2022/01/02 12:10:28;;;;;;;0.40;0.40;;;;;;;15.29;61.45;101165.47;5079924;28;20409;-81
2022/01/02 12:26:34;;;;;;;0.10;0.10;;;;;;;15.47;60.21;101181.75;5092051;27;20405;-82
2022/01/02 12:29:06;;;;;;;0.10;0.10;;;;;;;15.28;60.17;101170.84;5071356;28;20036;-81
2022/01/02 12:31:38;;;;;;;0.10;0.10;;;;;;;15.34;59.90;101184.00;5051649;28;20026;-82
2022/01/02 12:34:22;;;;;;;0.10;0.10;;;;;;;15.35;59.61;101175.03;5052087;28;20052;-81
2022/01/02 12:36:50;;;;;;;6.35;2.63;;;;;;;15.18;59.68;101180.97;5051773;28;20033;-82